Time;durP1;ratioP1;P1;durP2;ratioP2;P2;SDS_P1;SDS_P2;PMS_P1;PMS_P2;Temp;Humidity;BMP_temperature;BMP_pressure;BME280_temperature;BME280_humidity;BME280_pressure;Samples;Min_cycle;Max_cycle;Signal;HPM_P1;HPM_P2
2021/10/09 00:01:22;;;;;;;12.83;10.80;;;11.30;99.90;;;;;;4965547;28;20406;-81
2021/10/09 00:03:49;;;;;;;13.30;9.87;;;11.30;99.90;;;;;;4981969;28;20395;-81
2021/10/09 00:06:16;;;;;;;15.37;9.73;;;11.20;99.90;;;;;;4965332;28;20774;-81
2021/10/09 00:08:42;;;;;;;13.53;10.17;;;11.20;99.90;;;;;;4949322;28;20398;-80
2021/10/09 00:11:15;;;;;;;15.00;10.00;;;11.20;99.90;;;;;;4997289;28;20412;-81
2021/10/09 00:13:41;;;;;;;17.07;9.43;;;11.20;99.90;;;;;;5022381;28;20400;-82
2021/10/09 00:16:06;;;;;;;11.43;9.53;;;11.20;99.90;;;;;;4985362;28;20476;-81
2021/10/09 00:18:33;;;;;;;21.73;10.67;;;11.20;99.90;;;;;;4968831;28;20355;-81
2021/10/09 00:21:00;;;;;;;16.80;9.40;;;11.20;99.90;;;;;;4969239;28;20202;-81
2021/10/09 00:23:26;;;;;;;21.17;9.73;;;11.20;99.90;;;;;;4981873;28;20478;-81
2021/10/09 00:25:54;;;;;;;18.87;9.77;;;11.10;99.90;;;;;;4965634;28;20434;-81
2021/10/09 00:28:20;;;;;;;15.33;10.20;;;11.10;99.90;;;;;;4966195;28;20179;-80
2021/10/09 00:30:46;;;;;;;19.07;10.07;;;11.10;99.90;;;;;;4982410;28;20416;-81
2021/10/09 00:33:15;;;;;;;19.73;8.73;;;11.10;99.90;;;;;;4982369;28;20391;-81
2021/10/09 00:35:41;;;;;;;15.13;9.80;;;11.10;99.90;;;;;;4982675;28;20425;-80
2021/10/09 00:38:06;;;;;;;13.47;9.27;;;11.00;99.90;;;;;;4981600;28;20186;-81
2021/10/09 00:40:32;;;;;;;17.97;9.47;;;11.10;99.90;;;;;;4981866;28;20438;-81
2021/10/09 00:42:58;;;;;;;13.97;10.07;;;11.10;99.90;;;;;;4965984;28;20190;-81
2021/10/09 00:45:24;;;;;;;21.13;8.43;;;11.10;99.90;;;;;;4966797;28;20487;-80
2021/10/09 00:47:51;;;;;;;11.70;8.33;;;11.00;99.90;;;;;;4968361;28;20624;-81
2021/10/09 00:50:17;;;;;;;13.53;8.50;;;10.90;99.90;;;;;;4986622;28;20461;-81
2021/10/09 00:52:45;;;;;;;14.80;9.97;;;11.00;99.90;;;;;;4970370;28;20437;-81
2021/10/09 00:55:12;;;;;;;13.70;8.80;;;10.90;99.90;;;;;;4999944;28;20412;-80
2021/10/09 00:57:43;;;;;;;13.53;8.77;;;10.90;99.90;;;;;;4994297;28;20411;-81
2021/10/09 01:00:10;;;;;;;10.80;8.43;;;10.90;99.90;;;;;;5025980;28;20440;-80
2021/10/09 01:02:38;;;;;;;22.53;9.37;;;10.80;99.90;;;;;;5026570;28;20493;-81
2021/10/09 01:05:10;;;;;;;13.40;8.93;;;10.70;99.90;;;;;;5025851;28;20391;-81
2021/10/09 01:07:39;;;;;;;10.73;9.53;;;10.70;99.90;;;;;;5010268;28;20868;-81
2021/10/09 01:10:05;;;;;;;13.37;8.63;;;10.70;99.90;;;;;;5025862;28;20400;-81
2021/10/09 01:12:31;;;;;;;20.53;8.40;;;10.70;99.90;;;;;;5009359;28;20408;-81
2021/10/09 01:14:57;;;;;;;17.70;9.50;;;10.70;99.90;;;;;;4976523;28;20415;-81
2021/10/09 01:17:23;;;;;;;14.60;8.07;;;10.70;99.90;;;;;;4988243;28;20284;-79
2021/10/09 01:19:49;;;;;;;10.13;8.23;;;10.70;99.90;;;;;;5004703;28;20189;-81
2021/10/09 01:22:16;;;;;;;14.17;8.40;;;10.70;99.90;;;;;;5009622;28;20983;-79
2021/10/09 01:24:42;;;;;;;19.83;9.43;;;10.60;99.90;;;;;;5026397;28;20178;-82
2021/10/09 01:27:08;;;;;;;11.90;8.93;;;10.60;99.90;;;;;;5009485;28;20820;-81
2021/10/09 01:29:35;;;;;;;12.70;8.57;;;10.50;99.90;;;;;;5024534;28;20299;-81
2021/10/09 01:32:02;;;;;;;18.33;9.67;;;10.60;99.90;;;;;;5024919;28;20466;-81
2021/10/09 01:34:30;;;;;;;12.83;8.60;;;10.50;99.90;;;;;;5008922;28;20404;-81
2021/10/09 01:36:55;;;;;;;11.70;8.53;;;10.50;99.90;;;;;;4989429;28;20423;-81
2021/10/09 01:39:21;;;;;;;9.93;8.10;;;10.50;99.90;;;;;;4988237;28;20471;-82
2021/10/09 01:41:49;;;;;;;15.80;8.90;;;10.50;99.90;;;;;;5004278;28;20190;-81
2021/10/09 01:44:16;;;;;;;15.83;8.80;;;10.50;99.90;;;;;;5020495;28;20233;-81
2021/10/09 01:46:43;;;;;;;16.37;8.10;;;10.50;99.90;;;;;;4990997;28;20455;-81
2021/10/09 01:49:09;;;;;;;9.07;7.63;;;10.40;99.90;;;;;;5007285;28;20515;-81
2021/10/09 01:51:35;;;;;;;12.83;8.03;;;10.40;99.90;;;;;;5007930;28;20388;-82
2021/10/09 01:54:01;;;;;;;21.13;9.10;;;10.40;99.90;;;;;;5008376;28;20397;-81
2021/10/09 01:56:27;;;;;;;14.80;8.33;;;10.30;99.90;;;;;;5008473;28;20393;-81
2021/10/09 01:58:53;;;;;;;12.17;9.07;;;10.30;99.90;;;;;;5007237;28;20492;-81
2021/10/09 02:01:22;;;;;;;13.43;8.83;;;10.30;99.90;;;;;;5009046;28;20228;-80
2021/10/09 02:03:48;;;;;;;9.97;8.43;;;10.30;99.90;;;;;;5024476;28;20396;-81
2021/10/09 02:06:15;;;;;;;9.90;8.60;;;10.30;99.90;;;;;;4991150;28;20467;-81
2021/10/09 02:08:41;;;;;;;14.20;8.30;;;10.20;99.90;;;;;;5025038;28;20411;-81
2021/10/09 02:11:12;;;;;;;16.57;8.80;;;10.20;99.90;;;;;;5008565;28;20455;-81
2021/10/09 02:16:49;;;;;;;11.63;8.63;;;10.10;99.90;;;;;;5026026;28;20403;-81
2021/10/09 02:24:08;;;;;;;11.13;7.20;;;10.10;99.90;;;;;;5024256;28;20459;-81
2021/10/09 02:24:50;;;;;;;13.03;8.57;;;10.10;99.90;;;;;;5025407;28;20407;-82
2021/10/09 02:27:15;;;;;;;10.40;7.30;;;10.10;99.90;;;;;;5025295;28;20915;-81
2021/10/09 02:29:40;;;;;;;10.67;8.63;;;10.10;99.90;;;;;;5007573;28;20405;-82
2021/10/09 02:32:11;;;;;;;11.27;8.30;;;10.00;99.90;;;;;;5003853;28;20244;-82
2021/10/09 02:34:38;;;;;;;14.00;8.03;;;9.90;99.90;;;;;;4987879;28;20424;-80
2021/10/09 02:37:04;;;;;;;15.57;8.47;;;9.90;99.90;;;;;;4987739;28;20484;-81
2021/10/09 02:39:30;;;;;;;17.20;8.27;;;9.90;99.90;;;;;;4988708;28;20886;-81
2021/10/09 02:41:55;;;;;;;12.50;8.20;;;10.00;99.90;;;;;;5006298;28;20674;-81
2021/10/09 02:44:22;;;;;;;17.17;8.87;;;10.00;99.90;;;;;;4992414;28;20393;-80
2021/10/09 02:46:48;;;;;;;13.03;7.30;;;9.90;99.90;;;;;;5007816;28;20674;-81
2021/10/09 02:49:13;;;;;;;12.23;7.30;;;9.90;99.90;;;;;;4969484;29;20425;-81
2021/10/09 02:51:40;;;;;;;11.97;8.33;;;9.90;99.90;;;;;;4966544;29;20847;-80
2021/10/09 02:54:06;;;;;;;14.50;7.80;;;9.90;99.90;;;;;;4948107;29;20183;-81
2021/10/09 02:56:32;;;;;;;11.43;7.23;;;9.90;99.90;;;;;;4963147;29;20815;-81
2021/10/09 02:58:59;;;;;;;18.00;7.90;;;9.90;99.90;;;;;;4946645;29;20214;-81
2021/10/09 03:01:26;;;;;;;14.27;8.23;;;9.90;99.90;;;;;;4962992;29;20254;-81
2021/10/09 03:03:52;;;;;;;16.13;8.47;;;9.90;99.90;;;;;;4982985;28;20410;-81
2021/10/09 03:06:17;;;;;;;8.47;6.33;;;10.00;99.90;;;;;;4987420;28;20440;-81
2021/10/09 03:08:43;;;;;;;9.00;8.03;;;10.00;99.90;;;;;;5005928;28;20196;-79
2021/10/09 03:11:09;;;;;;;10.73;7.87;;;9.90;99.90;;;;;;5013094;28;20193;-78
2021/10/09 03:13:36;;;;;;;11.90;8.30;;;9.90;99.90;;;;;;5005942;28;20198;-81
2021/10/09 03:16:02;;;;;;;13.00;9.10;;;9.90;99.90;;;;;;4985091;28;20189;-81
2021/10/09 03:18:28;;;;;;;12.60;7.67;;;9.90;99.90;;;;;;4984554;28;20414;-81
2021/10/09 03:20:54;;;;;;;11.90;8.73;;;9.90;99.90;;;;;;4965769;28;20784;-80
2021/10/09 03:23:19;;;;;;;12.60;8.00;;;9.90;99.90;;;;;;4978879;28;20183;-81
2021/10/09 03:25:45;;;;;;;9.80;7.60;;;9.90;99.90;;;;;;4963475;29;20641;-80
2021/10/09 03:28:11;;;;;;;12.40;7.67;;;9.90;99.90;;;;;;4963028;29;20179;-81
2021/10/09 03:30:37;;;;;;;13.67;7.87;;;9.90;99.90;;;;;;4963206;29;20179;-81
2021/10/09 03:33:04;;;;;;;12.47;8.83;;;9.80;99.90;;;;;;4962552;29;20286;-81
2021/10/09 03:35:30;;;;;;;10.03;6.73;;;9.80;99.90;;;;;;4979416;28;20215;-81
2021/10/09 03:37:56;;;;;;;14.03;7.73;;;9.80;99.90;;;;;;4981130;28;20407;-81
2021/10/09 03:40:23;;;;;;;12.00;8.70;;;9.70;99.90;;;;;;4980791;28;20214;-80
2021/10/09 03:42:56;;;;;;;12.80;9.10;;;9.70;99.90;;;;;;5001029;28;20396;-81
2021/10/09 03:45:31;;;;;;;13.60;7.77;;;9.70;99.90;;;;;;5001991;28;20396;-80
2021/10/09 03:48:07;;;;;;;15.60;7.60;;;9.60;99.90;;;;;;4968031;28;20808;-80
2021/10/09 03:53:12;;;;;;;7.53;6.73;;;9.60;99.90;;;;;;5023679;28;20399;-80
2021/10/09 03:55:38;;;;;;;12.27;7.80;;;9.60;99.90;;;;;;5022172;28;20393;-80
2021/10/09 03:58:04;;;;;;;10.67;7.97;;;9.60;99.90;;;;;;5022500;28;20181;-80
2021/10/09 04:00:31;;;;;;;10.73;7.73;;;9.60;99.90;;;;;;5023197;28;20216;-81
2021/10/09 04:02:57;;;;;;;16.20;7.93;;;9.60;99.90;;;;;;5006515;28;20158;-81
2021/10/09 04:05:23;;;;;;;11.40;7.23;;;9.60;99.90;;;;;;5005533;28;20738;-80
2021/10/09 04:07:51;;;;;;;10.57;8.07;;;9.60;99.90;;;;;;5020798;28;20165;-81
2021/10/09 04:10:18;;;;;;;10.50;7.27;;;9.50;99.90;;;;;;5022264;28;20483;-81
2021/10/09 04:12:44;;;;;;;15.00;7.77;;;9.50;99.90;;;;;;5005778;28;20482;-81
2021/10/09 04:15:09;;;;;;;12.43;8.37;;;9.50;99.90;;;;;;5005176;28;20408;-81
2021/10/09 04:17:35;;;;;;;12.60;8.20;;;9.40;99.90;;;;;;5021224;28;20181;-81
2021/10/09 04:20:01;;;;;;;12.63;7.20;;;9.40;99.90;;;;;;5021256;28;20196;-81
2021/10/09 04:22:27;;;;;;;10.67;7.53;;;9.40;99.90;;;;;;4987536;28;20196;-81
2021/10/09 04:24:52;;;;;;;13.13;8.90;;;9.40;99.90;;;;;;5021354;28;20625;-81
2021/10/09 04:27:18;;;;;;;15.37;8.40;;;9.40;99.90;;;;;;5020861;28;20153;-81
2021/10/09 04:29:44;;;;;;;14.30;7.87;;;9.30;99.90;;;;;;5021857;28;20165;-81
2021/10/09 04:32:10;;;;;;;14.27;8.80;;;9.30;99.90;;;;;;4988042;28;20229;-81
2021/10/09 04:34:36;;;;;;;13.63;8.73;;;9.20;99.90;;;;;;5021824;28;20225;-80
2021/10/09 04:37:02;;;;;;;12.03;9.03;;;9.20;99.90;;;;;;5021580;28;20264;-81
2021/10/09 04:39:28;;;;;;;10.00;7.43;;;9.10;99.90;;;;;;5020323;28;20224;-81
2021/10/09 04:41:57;;;;;;;11.53;8.07;;;9.20;99.90;;;;;;5021608;28;20384;-80
2021/10/09 04:44:23;;;;;;;11.70;8.00;;;9.20;99.90;;;;;;5020936;28;20761;-81
2021/10/09 04:46:49;;;;;;;19.47;9.20;;;9.10;99.90;;;;;;5004759;28;20216;-80
2021/10/09 04:49:15;;;;;;;11.13;7.57;;;9.10;99.90;;;;;;5020951;28;20192;-81
2021/10/09 04:51:41;;;;;;;12.73;8.10;;;9.10;99.90;;;;;;5021587;28;20397;-81
2021/10/09 04:54:06;;;;;;;10.40;8.07;;;9.10;99.90;;;;;;5020152;28;20181;-81
2021/10/09 04:56:32;;;;;;;18.10;9.57;;;9.10;99.90;;;;;;5004055;28;20220;-81
2021/10/09 04:58:58;;;;;;;12.10;8.57;;;9.00;99.90;;;;;;4987811;28;20280;-79
2021/10/09 05:01:24;;;;;;;11.10;7.40;;;9.10;99.90;;;;;;4971364;28;20595;-79
2021/10/09 05:03:50;;;;;;;10.30;8.00;;;9.10;99.90;;;;;;5004119;28;20281;-81
2021/10/09 05:06:17;;;;;;;10.70;7.97;;;9.00;99.90;;;;;;5003921;28;20170;-81
2021/10/09 05:08:42;;;;;;;14.77;7.67;;;9.00;99.90;;;;;;4987018;28;20196;-80
2021/10/09 05:11:10;;;;;;;10.57;8.57;;;9.00;99.90;;;;;;4971626;28;20885;-82
2021/10/09 05:13:36;;;;;;;17.23;8.30;;;9.00;99.90;;;;;;4987833;28;20215;-81
2021/10/09 05:16:02;;;;;;;10.87;6.80;;;8.90;99.90;;;;;;4987576;28;20764;-80
2021/10/09 05:18:28;;;;;;;9.20;7.97;;;8.80;99.90;;;;;;5022274;28;20471;-78
2021/10/09 05:20:54;;;;;;;19.07;7.50;;;8.80;99.90;;;;;;4973371;28;20255;-80
2021/10/09 05:23:19;;;;;;;11.03;8.10;;;8.80;99.90;;;;;;5004595;28;20400;-81
2021/10/09 05:25:49;;;;;;;9.73;7.60;;;8.80;99.90;;;;;;5017257;28;20263;-81
2021/10/09 05:28:18;;;;;;;22.63;10.27;;;8.80;99.90;;;;;;5023018;28;20500;-80
2021/10/09 05:30:47;;;;;;;14.90;8.13;;;8.80;99.90;;;;;;5006419;28;20400;-82
2021/10/09 05:35:58;;;;;;;10.73;7.90;;;8.80;99.90;;;;;;5028695;28;20396;-79
2021/10/09 05:38:24;;;;;;;11.77;8.10;;;8.80;99.90;;;;;;5027826;28;20491;-80
2021/10/09 05:40:50;;;;;;;13.40;8.67;;;8.80;99.90;;;;;;5025854;28;20439;-82
2021/10/09 05:43:16;;;;;;;12.77;8.80;;;8.80;99.90;;;;;;5009652;28;20165;-81
2021/10/09 05:45:42;;;;;;;16.37;9.43;;;8.80;99.90;;;;;;5028579;28;20405;-81
2021/10/09 05:48:09;;;;;;;10.17;8.53;;;8.80;99.90;;;;;;5023803;28;20420;-81
2021/10/09 05:50:48;;;;;;;11.30;8.27;;;8.80;99.90;;;;;;5027436;28;20852;-81
2021/10/09 05:53:28;;;;;;;13.13;8.40;;;8.90;99.90;;;;;;5025251;28;20495;-81
2021/10/09 05:55:59;;;;;;;24.00;10.60;;;8.90;99.90;;;;;;5011748;28;20486;-78
2021/10/09 05:58:31;;;;;;;15.17;9.37;;;8.90;99.90;;;;;;5024971;28;20794;-80
2021/10/09 06:01:16;;;;;;;11.50;9.73;;;8.90;99.90;;;;;;5025224;28;20450;-80
2021/10/09 06:25:38;;;;;;;17.93;10.20;;;9.00;99.90;;;;;;5031627;28;20389;-78
2021/10/09 06:49:32;;;;;;;18.43;11.00;;;9.30;99.90;;;;;;5023534;28;20509;-81
2021/10/09 06:59:58;;;;;;;16.40;10.83;;;9.30;99.90;;;;;;5021260;28;20815;-81
2021/10/09 07:02:24;;;;;;;21.50;11.00;;;9.50;99.90;;;;;;5004697;28;20408;-81
2021/10/09 07:04:50;;;;;;;19.73;11.60;;;9.50;99.90;;;;;;5004997;28;20164;-81
2021/10/09 07:07:19;;;;;;;15.43;11.20;;;9.70;99.90;;;;;;5021561;28;20749;-80
2021/10/09 07:09:47;;;;;;;23.67;10.83;;;9.80;99.90;;;;;;5021342;28;20519;-81
2021/10/09 07:12:13;;;;;;;18.47;11.57;;;9.90;99.90;;;;;;5022499;28;20458;-80
2021/10/09 07:14:39;;;;;;;20.77;10.87;;;10.00;99.90;;;;;;5038892;28;20412;-81
2021/10/09 07:17:05;;;;;;;17.53;9.70;;;10.10;99.90;;;;;;5005435;28;20257;-81
2021/10/09 07:19:31;;;;;;;15.93;11.50;;;10.20;99.90;;;;;;5037942;28;20193;-82
2021/10/09 07:21:58;;;;;;;16.83;10.50;;;10.20;99.90;;;;;;5023039;28;20193;-81
2021/10/09 07:24:23;;;;;;;17.00;11.93;;;10.30;99.90;;;;;;5039905;28;20396;-81
2021/10/09 07:26:49;;;;;;;21.50;13.20;;;10.30;99.90;;;;;;5040929;28;20411;-81
2021/10/09 07:29:15;;;;;;;11.57;9.73;;;10.40;99.90;;;;;;5023186;28;20256;-81
2021/10/09 07:31:43;;;;;;;20.87;12.60;;;10.40;99.90;;;;;;5040384;28;20292;-80
2021/10/09 07:34:08;;;;;;;17.03;12.13;;;10.50;99.90;;;;;;5024681;28;20169;-80
2021/10/09 07:36:34;;;;;;;22.43;12.43;;;10.60;99.90;;;;;;5025387;28;20881;-81
2021/10/09 07:39:00;;;;;;;17.70;12.50;;;10.70;99.90;;;;;;5007353;28;20291;-80
2021/10/09 07:41:28;;;;;;;24.30;12.73;;;10.70;99.90;;;;;;5008810;28;20178;-80
2021/10/09 07:43:54;;;;;;;16.93;11.43;;;10.80;99.90;;;;;;5023447;28;20477;-81
2021/10/09 07:46:20;;;;;;;21.60;11.63;;;10.80;99.90;;;;;;5023496;28;20170;-81
2021/10/09 07:48:46;;;;;;;21.93;12.53;;;10.90;99.90;;;;;;5007502;28;20870;-82
2021/10/09 07:51:12;;;;;;;35.10;15.90;;;10.90;99.90;;;;;;5022987;28;20406;-81
2021/10/09 07:53:38;;;;;;;20.37;14.87;;;11.00;99.90;;;;;;5010829;28;20173;-77
2021/10/09 07:56:07;;;;;;;20.93;13.67;;;11.10;99.90;;;;;;5021456;28;20495;-82
2021/10/09 07:58:33;;;;;;;24.73;13.13;;;11.20;99.90;;;;;;5016536;28;20241;-81
2021/10/09 08:00:59;;;;;;;21.43;13.37;;;11.20;99.90;;;;;;5023691;28;20431;-81
2021/10/09 08:03:26;;;;;;;17.33;12.23;;;11.30;99.90;;;;;;5023990;28;20392;-78
2021/10/09 08:05:53;;;;;;;25.53;11.70;;;11.30;99.90;;;;;;5011455;28;20158;-81
2021/10/09 08:08:21;;;;;;;20.43;12.97;;;11.50;99.90;;;;;;5011988;28;20412;-82
2021/10/09 08:10:48;;;;;;;15.00;12.53;;;11.40;99.90;;;;;;5005632;28;20423;-81
2021/10/09 08:13:15;;;;;;;18.10;10.70;;;11.50;99.90;;;;;;5018779;28;20768;-80
2021/10/09 08:15:42;;;;;;;16.10;11.10;;;11.40;99.90;;;;;;5016622;28;20492;-80
2021/10/09 08:18:08;;;;;;;14.33;11.30;;;11.40;99.90;;;;;;5018090;28;20400;-82
2021/10/09 08:20:34;;;;;;;22.00;12.57;;;12.20;99.90;;;;;;5017906;28;20460;-82
2021/10/09 08:23:04;;;;;;;20.27;12.60;;;12.60;99.90;;;;;;5018633;28;20487;-80
2021/10/09 08:35:24;;;;;;;14.87;11.10;;;13.70;99.90;;;;;;5018489;28;20400;-81
2021/10/09 08:36:19;;;;;;;19.63;12.50;;;13.60;99.90;;;;;;4995655;28;20953;-82
2021/10/09 08:38:53;;;;;;;13.67;10.73;;;13.40;99.90;;;;;;4979624;28;20444;-80
2021/10/09 08:41:19;;;;;;;14.70;10.33;;;13.40;99.90;;;;;;4979947;28;20447;-82
2021/10/09 08:43:49;;;;;;;26.77;12.23;;;14.10;99.90;;;;;;4995731;28;20398;-81
2021/10/09 08:46:17;;;;;;;14.63;10.60;;;14.30;99.90;;;;;;4979598;28;20413;-81
2021/10/09 08:48:46;;;;;;;20.53;12.03;;;15.20;99.90;;;;;;4976668;28;20421;-80
2021/10/09 08:51:13;;;;;;;13.20;10.50;;;16.00;99.90;;;;;;4979219;28;20444;-82
2021/10/09 08:53:41;;;;;;;13.67;9.53;;;16.00;99.90;;;;;;4984278;28;20844;-81
2021/10/09 08:56:09;;;;;;;23.13;11.10;;;15.70;99.90;;;;;;4994956;28;20811;-81
2021/10/09 08:58:39;;;;;;;21.50;10.27;;;16.80;99.90;;;;;;4994349;28;20416;-81
2021/10/09 09:01:20;;;;;;;19.52;11.18;;;17.20;99.90;;;;;;4993976;28;20459;-81
2021/10/09 09:04:12;;;;;;;17.40;12.77;;;17.70;99.90;;;;;;4979180;28;20162;-82
2021/10/09 09:09:27;;;;;;;11.80;9.70;;;16.90;99.90;;;;;;5021771;28;20400;-82
2021/10/09 09:25:58;;;;;;;11.43;8.63;;;16.50;99.90;;;;;;5006379;28;20923;-81
2021/10/09 09:37:05;;;;;;;13.93;8.00;;;18.60;99.90;;;;;;5024594;28;20424;-83
2021/10/09 09:39:40;;;;;;;11.73;7.67;;;19.20;99.90;;;;;;5024912;28;20884;-83
2021/10/09 09:42:08;;;;;;;16.07;8.73;;;17.80;99.90;;;;;;5022078;28;20542;-81
2021/10/09 09:44:53;;;;;;;12.47;7.37;;;19.60;99.90;;;;;;5024617;28;20420;-81
2021/10/09 09:47:31;;;;;;;11.00;7.87;;;18.20;99.10;;;;;;5024273;28;20416;-80
2021/10/09 09:49:58;;;;;;;12.33;8.00;;;17.20;99.90;;;;;;5024326;28;20857;-83
2021/10/09 09:52:24;;;;;;;12.50;7.63;;;17.90;99.00;;;;;;5024023;28;20404;-83
2021/10/09 09:54:51;;;;;;;11.90;8.03;;;18.70;98.40;;;;;;5023040;28;20411;-81
2021/10/09 09:57:19;;;;;;;11.87;8.67;;;17.30;99.90;;;;;;5004935;28;20397;-83
2021/10/09 09:59:46;;;;;;;11.70;7.40;;;18.90;99.90;;;;;;5019316;28;20444;-83
2021/10/09 10:02:17;;;;;;;15.03;8.57;;;18.60;99.80;;;;;;5019128;28;20395;-81
2021/10/09 10:04:44;;;;;;;13.77;8.20;;;18.10;98.40;;;;;;5022127;28;20393;-82
2021/10/09 10:07:10;;;;;;;10.10;7.50;;;17.20;97.20;;;;;;5020749;28;20551;-82
2021/10/09 10:09:38;;;;;;;11.40;7.20;;;18.00;99.70;;;;;;5021297;28;20408;-82
2021/10/09 10:12:06;;;;;;;9.80;7.20;;;18.30;98.80;;;;;;5019894;28;20408;-82
2021/10/09 10:14:33;;;;;;;7.77;6.87;;;18.10;96.60;;;;;;5004674;28;20401;-81
2021/10/09 10:17:00;;;;;;;9.70;8.07;;;18.40;97.90;;;;;;5023206;28;20397;-81
2021/10/09 10:19:57;;;;;;;9.10;8.10;;;19.10;99.30;;;;;;5026285;28;20444;-79
2021/10/09 10:22:55;;;;;;;8.80;6.97;;;19.00;96.20;;;;;;5021022;28;20428;-81
2021/10/09 10:25:32;;;;;;;12.80;7.37;;;17.80;98.10;;;;;;5024475;28;20385;-83
2021/10/09 10:28:09;;;;;;;8.90;6.60;;;16.80;98.20;;;;;;5003329;28;20420;-81
2021/10/09 10:30:40;;;;;;;9.03;7.43;;;17.90;99.10;;;;;;5003656;28;20793;-82
2021/10/09 10:33:30;;;;;;;9.97;7.50;;;17.60;97.30;;;;;;5020040;28;20459;-81
2021/10/09 10:36:02;;;;;;;13.97;6.83;;;17.50;96.80;;;;;;5003882;28;20412;-82
2021/10/09 10:38:47;;;;;;;11.30;7.03;;;17.60;95.50;;;;;;4995329;28;20435;-81
2021/10/09 10:41:19;;;;;;;9.43;6.83;;;17.20;96.90;;;;;;5020643;28;20422;-82
2021/10/09 10:43:49;;;;;;;10.77;7.53;;;17.80;95.80;;;;;;5019914;28;20381;-85
2021/10/09 10:46:44;;;;;;;8.57;7.27;;;17.30;97.30;;;;;;5025578;28;20373;-81
2021/10/09 10:49:21;;;;;;;16.33;6.50;;;17.30;98.00;;;;;;5025672;28;20446;-81
2021/10/09 10:51:57;;;;;;;8.60;7.00;;;17.30;97.50;;;;;;5024413;28;20408;-82
2021/10/09 10:54:33;;;;;;;12.53;7.70;;;18.10;97.50;;;;;;5006940;28;20399;-83
2021/10/09 10:57:15;;;;;;;9.80;6.03;;;19.00;95.00;;;;;;5023522;28;20464;-80
2021/10/09 10:59:52;;;;;;;9.10;6.07;;;18.30;94.30;;;;;;5023193;28;20447;-82
2021/10/09 11:02:21;;;;;;;7.57;6.77;;;18.70;94.50;;;;;;5019089;28;20400;-83
2021/10/09 11:04:50;;;;;;;9.47;6.47;;;18.20;94.50;;;;;;5007265;28;20393;-81
2021/10/09 11:07:17;;;;;;;7.77;5.83;;;18.00;94.30;;;;;;5006620;28;20396;-82
2021/10/09 11:09:44;;;;;;;8.70;5.97;;;18.50;94.90;;;;;;5007529;28;20405;-80
2021/10/09 11:12:24;;;;;;;15.73;7.17;;;19.20;93.30;;;;;;5021818;28;20507;-82
2021/10/09 11:14:59;;;;;;;9.40;7.07;;;18.50;93.70;;;;;;5028656;28;20411;-82
2021/10/09 11:17:35;;;;;;;16.13;7.23;;;18.20;93.20;;;;;;5025762;28;20459;-83
2021/10/09 11:20:20;;;;;;;7.30;6.60;;;18.80;94.30;;;;;;5033120;28;20448;-80
2021/10/09 11:22:49;;;;;;;10.30;7.37;;;19.00;92.60;;;;;;5016881;28;20435;-81
2021/10/09 11:25:33;;;;;;;9.67;6.87;;;19.30;93.00;;;;;;5034429;28;20384;-80
2021/10/09 11:28:02;;;;;;;8.63;6.90;;;20.40;93.00;;;;;;5029681;28;20471;-80
2021/10/09 11:30:30;;;;;;;9.83;6.57;;;19.90;91.00;;;;;;5019054;28;20472;-82
2021/10/09 11:32:57;;;;;;;8.90;7.40;;;19.60;90.00;;;;;;5000324;28;20606;-80
2021/10/09 11:35:40;;;;;;;13.43;6.07;;;19.30;92.10;;;;;;5016872;28;20749;-83
2021/10/09 11:38:22;;;;;;;12.07;7.13;;;19.10;91.20;;;;;;5020019;28;20393;-84
2021/10/09 11:40:56;;;;;;;7.80;7.00;;;19.00;90.60;;;;;;5025529;28;20471;-80
2021/10/09 11:43:50;;;;;;;10.97;5.60;;;19.90;91.20;;;;;;5022241;28;20419;-80
2021/10/09 11:55:18;;;;;;;8.30;4.80;;;19.30;85.10;;;;;;5007122;28;20496;-82
2021/10/09 11:57:48;;;;;;;5.77;4.60;;;20.20;84.50;;;;;;5007650;28;20412;-81
2021/10/09 12:00:37;;;;;;;7.87;4.60;;;19.70;81.90;;;;;;5020130;28;20542;-84
2021/10/09 12:03:30;;;;;;;12.60;9.00;;;19.40;81.90;;;;;;5018481;28;20488;-83
2021/10/09 12:05:58;;;;;;;6.97;5.60;;;19.40;80.00;;;;;;5022159;28;20392;-83
2021/10/09 12:08:25;;;;;;;7.93;5.10;;;20.20;81.30;;;;;;5016981;28;20480;-82
2021/10/09 12:11:09;;;;;;;7.70;5.17;;;21.10;83.00;;;;;;5018890;28;20411;-82
2021/10/09 12:14:03;;;;;;;10.10;5.80;;;20.10;79.70;;;;;;5017359;28;20401;-83
2021/10/09 12:16:33;;;;;;;7.33;6.17;;;20.90;80.60;;;;;;5017683;28;20443;-81
2021/10/09 12:19:03;;;;;;;6.23;5.00;;;23.00;79.10;;;;;;5002354;28;20538;-83
2021/10/09 12:21:33;;;;;;;13.13;5.93;;;21.90;72.40;;;;;;5018462;28;20916;-82
2021/10/09 12:24:10;;;;;;;5.33;4.83;;;19.90;72.90;;;;;;5027067;28;20407;-80
2021/10/09 12:26:36;;;;;;;7.40;6.20;;;19.30;73.30;;;;;;5033231;28;20453;-81
2021/10/09 12:29:18;;;;;;;7.53;5.40;;;20.00;73.00;;;;;;5001162;28;20479;-83
2021/10/09 12:31:47;;;;;;;6.80;6.00;;;20.30;72.80;;;;;;5017573;28;20510;-82
2021/10/09 12:34:34;;;;;;;5.10;4.23;;;21.60;73.90;;;;;;5019524;28;20429;-80
2021/10/09 12:37:21;;;;;;;4.90;4.40;;;20.60;70.00;;;;;;5018980;28;20439;-83
2021/10/09 12:40:05;;;;;;;5.17;4.77;;;21.20;69.80;;;;;;5018733;28;20451;-82
2021/10/09 12:42:54;;;;;;;8.33;4.30;;;20.90;74.00;;;;;;5000273;28;20436;-82
2021/10/09 12:45:22;;;;;;;5.70;5.07;;;20.70;71.50;;;;;;5002685;28;20521;-82
2021/10/09 12:47:48;;;;;;;6.30;5.80;;;20.80;72.10;;;;;;5002285;28;20415;-83
2021/10/09 12:50:14;;;;;;;6.93;5.17;;;20.50;70.30;;;;;;4947713;29;20434;-81
2021/10/09 12:52:40;;;;;;;5.13;3.70;;;20.00;67.60;;;;;;4961396;28;20516;-82
2021/10/09 12:55:06;;;;;;;7.27;5.00;;;21.10;70.10;;;;;;4963754;28;20426;-81
2021/10/09 12:57:34;;;;;;;8.33;4.80;;;21.50;68.80;;;;;;4947291;29;20297;-83
2021/10/09 13:00:00;;;;;;;4.93;4.37;;;21.00;65.00;;;;;;4946171;29;20454;-82
2021/10/09 13:02:26;;;;;;;4.50;4.10;;;20.30;64.60;;;;;;4962419;29;20422;-82
2021/10/09 13:04:52;;;;;;;10.53;5.07;;;20.90;67.20;;;;;;4962606;28;20489;-82
2021/10/09 13:07:18;;;;;;;5.27;4.07;;;20.00;67.40;;;;;;4946901;29;20409;-81
2021/10/09 13:09:44;;;;;;;4.93;4.50;;;20.70;69.60;;;;;;4962596;29;20896;-83
2021/10/09 13:12:14;;;;;;;6.70;4.97;;;20.30;68.50;;;;;;4962476;28;20489;-81
2021/10/09 13:14:40;;;;;;;6.83;4.27;;;21.30;71.10;;;;;;4995271;28;20190;-82
2021/10/09 13:17:06;;;;;;;7.87;5.53;;;21.10;66.30;;;;;;4969568;28;20483;-81
2021/10/09 13:19:32;;;;;;;9.50;4.97;;;20.30;65.40;;;;;;4970831;28;20436;-81
2021/10/09 13:21:58;;;;;;;6.50;4.10;;;20.40;69.70;;;;;;5022505;28;20256;-82
2021/10/09 13:24:23;;;;;;;5.60;4.87;;;20.70;67.20;;;;;;5023819;28;20435;-82
2021/10/09 13:26:49;;;;;;;5.47;5.07;;;22.50;65.50;;;;;;5028498;28;20262;-81
2021/10/09 13:29:15;;;;;;;5.93;4.30;;;22.30;62.90;;;;;;5025938;28;20179;-82
2021/10/09 13:31:41;;;;;;;6.97;4.80;;;21.50;63.40;;;;;;5023908;28;20251;-83
2021/10/09 13:34:27;;;;;;;8.30;5.20;;;22.10;64.20;;;;;;5002019;28;20251;-81
2021/10/09 13:36:53;;;;;;;5.77;4.93;;;22.90;64.00;;;;;;4968854;28;20511;-83
2021/10/09 13:39:19;;;;;;;6.60;4.77;;;21.20;63.00;;;;;;5002157;28;20216;-82
2021/10/09 13:41:48;;;;;;;8.23;4.50;;;22.30;62.20;;;;;;4990662;28;20245;-82
2021/10/09 13:44:14;;;;;;;5.13;4.63;;;21.60;65.70;;;;;;4965721;28;20405;-81
2021/10/09 13:46:40;;;;;;;5.63;4.20;;;21.00;65.90;;;;;;5001690;28;20531;-82
2021/10/09 13:49:06;;;;;;;4.87;4.13;;;21.20;65.10;;;;;;4985092;28;20331;-83
2021/10/09 13:51:33;;;;;;;7.37;4.43;;;21.50;65.60;;;;;;5001515;28;20196;-82
2021/10/09 13:53:59;;;;;;;7.17;5.23;;;21.90;64.80;;;;;;4999310;28;20432;-80
2021/10/09 13:56:25;;;;;;;6.67;5.87;;;22.00;62.70;;;;;;4999042;28;20404;-83
2021/10/09 13:58:51;;;;;;;5.37;4.87;;;22.40;64.30;;;;;;4997792;28;20496;-82
2021/10/09 14:01:17;;;;;;;6.60;5.67;;;22.00;61.70;;;;;;4964310;28;20425;-83
2021/10/09 14:03:45;;;;;;;5.70;4.70;;;21.50;68.10;;;;;;4983460;28;20404;-82
2021/10/09 14:06:10;;;;;;;9.30;4.43;;;20.50;62.80;;;;;;5017653;28;20602;-80
2021/10/09 14:08:36;;;;;;;5.80;5.03;;;20.60;65.30;;;;;;5026188;28;20440;-81
2021/10/09 14:11:03;;;;;;;8.00;5.20;;;20.30;65.80;;;;;;5019933;28;20184;-83
2021/10/09 14:13:31;;;;;;;5.63;4.27;;;20.00;66.30;;;;;;5023442;28;20165;-81
2021/10/09 14:15:57;;;;;;;7.13;5.37;;;19.60;65.00;;;;;;5010432;28;20472;-80
2021/10/09 14:18:24;;;;;;;7.73;6.90;;;20.10;66.90;;;;;;4996276;28;20445;-81
2021/10/09 14:20:55;;;;;;;9.60;4.60;;;19.70;68.10;;;;;;5010371;28;20463;-81
2021/10/09 14:23:22;;;;;;;6.70;4.43;;;19.40;66.40;;;;;;5010905;28;20745;-81
2021/10/09 14:25:52;;;;;;;16.50;6.10;;;19.60;66.40;;;;;;5007724;28;20904;-81
2021/10/09 14:28:18;;;;;;;6.27;4.77;;;20.10;71.40;;;;;;4970205;28;20444;-81
2021/10/09 14:30:50;;;;;;;6.77;5.30;;;19.70;67.70;;;;;;4989476;28;20425;-80
2021/10/09 14:33:17;;;;;;;7.73;4.97;;;20.00;67.60;;;;;;4968374;28;20528;-81
2021/10/09 14:35:44;;;;;;;7.27;4.50;;;20.20;68.50;;;;;;4983255;28;20885;-82